sensor_id;sensor_type;location;lat;lon;timestamp;P1;durP1;ratioP1;P2;durP2;ratioP2
6117;SDS011;3089;48.202;11.510;2023-04-15T00:00:04;4.77;;;1.80;;
6117;SDS011;3089;48.202;11.510;2023-04-15T00:02:32;5.03;;;1.83;;
6117;SDS011;3089;48.202;11.510;2023-04-15T00:05:00;5.80;;;1.90;;
6117;SDS011;3089;48.202;11.510;2023-04-15T00:07:28;10.73;;;2.20;;
6117;SDS011;3089;48.202;11.510;2023-04-15T00:09:58;4.20;;;1.67;;
6117;SDS011;3089;48.202;11.510;2023-04-15T00:12:26;5.33;;;2.53;;
6117;SDS011;3089;48.202;11.510;2023-04-15T00:14:54;4.67;;;1.50;;
6117;SDS011;3089;48.202;11.510;2023-04-15T00:17:23;5.47;;;2.10;;
6117;SDS011;3089;48.202;11.510;2023-04-15T00:19:51;4.00;;;1.70;;
6117;SDS011;3089;48.202;11.510;2023-04-15T00:22:19;5.83;;;1.90;;
6117;SDS011;3089;48.202;11.510;2023-04-15T00:24:47;5.67;;;2.03;;
6117;SDS011;3089;48.202;11.510;2023-04-15T00:27:17;4.53;;;1.50;;
6117;SDS011;3089;48.202;11.510;2023-04-15T00:29:45;5.47;;;1.77;;
6117;SDS011;3089;48.202;11.510;2023-04-15T00:32:13;4.83;;;1.90;;
6117;SDS011;3089;48.202;11.510;2023-04-15T00:34:41;6.40;;;1.80;;
6117;SDS011;3089;48.202;11.510;2023-04-15T00:37:08;5.40;;;1.67;;
6117;SDS011;3089;48.202;11.510;2023-04-15T00:39:36;6.97;;;2.57;;
6117;SDS011;3089;48.202;11.510;2023-04-15T00:42:05;5.03;;;1.80;;
6117;SDS011;3089;48.202;11.510;2023-04-15T00:44:34;5.37;;;1.97;;
6117;SDS011;3089;48.202;11.510;2023-04-15T00:47:02;4.97;;;1.77;;
6117;SDS011;3089;48.202;11.510;2023-04-15T00:49:31;7.57;;;2.50;;
6117;SDS011;3089;48.202;11.510;2023-04-15T00:51:59;4.80;;;2.23;;
6117;SDS011;3089;48.202;11.510;2023-04-15T00:54:27;5.90;;;1.87;;
6117;SDS011;3089;48.202;11.510;2023-04-15T00:56:55;4.73;;;2.13;;
6117;SDS011;3089;48.202;11.510;2023-04-15T00:59:23;5.37;;;2.20;;
6117;SDS011;3089;48.202;11.510;2023-04-15T01:01:53;4.93;;;2.47;;
6117;SDS011;3089;48.202;11.510;2023-04-15T01:04:22;7.13;;;2.20;;
6117;SDS011;3089;48.202;11.510;2023-04-15T01:06:50;6.07;;;2.50;;
6117;SDS011;3089;48.202;11.510;2023-04-15T01:09:18;4.80;;;2.33;;
6117;SDS011;3089;48.202;11.510;2023-04-15T01:11:46;10.03;;;2.47;;
6117;SDS011;3089;48.202;11.510;2023-04-15T01:14:14;7.00;;;2.83;;
6117;SDS011;3089;48.202;11.510;2023-04-15T01:16:42;6.03;;;2.47;;
6117;SDS011;3089;48.202;11.510;2023-04-15T01:19:12;5.83;;;2.00;;
6117;SDS011;3089;48.202;11.510;2023-04-15T01:21:42;4.37;;;2.40;;
6117;SDS011;3089;48.202;11.510;2023-04-15T01:24:11;6.03;;;2.70;;
6117;SDS011;3089;48.202;11.510;2023-04-15T01:26:45;6.30;;;2.70;;
6117;SDS011;3089;48.202;11.510;2023-04-15T01:29:14;5.77;;;2.90;;
6117;SDS011;3089;48.202;11.510;2023-04-15T01:31:47;4.33;;;2.27;;
6117;SDS011;3089;48.202;11.510;2023-04-15T01:34:17;7.40;;;2.77;;
6117;SDS011;3089;48.202;11.510;2023-04-15T01:36:45;4.80;;;2.40;;
6117;SDS011;3089;48.202;11.510;2023-04-15T01:39:13;6.80;;;2.40;;
6117;SDS011;3089;48.202;11.510;2023-04-15T01:41:41;4.70;;;2.77;;
6117;SDS011;3089;48.202;11.510;2023-04-15T01:44:10;8.67;;;3.10;;
6117;SDS011;3089;48.202;11.510;2023-04-15T01:46:38;6.00;;;2.83;;
6117;SDS011;3089;48.202;11.510;2023-04-15T01:49:06;7.33;;;2.80;;
6117;SDS011;3089;48.202;11.510;2023-04-15T01:51:34;7.60;;;2.83;;
6117;SDS011;3089;48.202;11.510;2023-04-15T01:54:01;7.50;;;3.50;;
6117;SDS011;3089;48.202;11.510;2023-04-15T01:56:29;7.83;;;2.87;;
6117;SDS011;3089;48.202;11.510;2023-04-15T01:58:57;6.50;;;2.90;;
6117;SDS011;3089;48.202;11.510;2023-04-15T02:01:27;7.00;;;3.00;;
6117;SDS011;3089;48.202;11.510;2023-04-15T02:03:54;5.83;;;2.53;;
6117;SDS011;3089;48.202;11.510;2023-04-15T02:06:23;7.63;;;2.77;;
6117;SDS011;3089;48.202;11.510;2023-04-15T02:08:50;6.63;;;3.07;;
6117;SDS011;3089;48.202;11.510;2023-04-15T02:11:18;6.13;;;2.47;;
6117;SDS011;3089;48.202;11.510;2023-04-15T02:13:46;5.43;;;2.37;;
6117;SDS011;3089;48.202;11.510;2023-04-15T02:16:15;5.73;;;2.73;;
6117;SDS011;3089;48.202;11.510;2023-04-15T02:18:45;5.60;;;2.90;;
6117;SDS011;3089;48.202;11.510;2023-04-15T02:21:13;4.80;;;2.60;;
6117;SDS011;3089;48.202;11.510;2023-04-15T02:23:41;11.47;;;2.63;;
6117;SDS011;3089;48.202;11.510;2023-04-15T02:26:10;7.00;;;2.40;;
6117;SDS011;3089;48.202;11.510;2023-04-15T02:28:38;6.37;;;2.57;;
6117;SDS011;3089;48.202;11.510;2023-04-15T02:31:06;6.03;;;2.77;;
6117;SDS011;3089;48.202;11.510;2023-04-15T02:33:34;5.47;;;2.30;;
6117;SDS011;3089;48.202;11.510;2023-04-15T02:36:04;5.30;;;2.67;;
6117;SDS011;3089;48.202;11.510;2023-04-15T02:38:32;6.00;;;2.27;;
6117;SDS011;3089;48.202;11.510;2023-04-15T02:41:00;5.77;;;2.77;;
6117;SDS011;3089;48.202;11.510;2023-04-15T02:43:28;3.93;;;2.00;;
6117;SDS011;3089;48.202;11.510;2023-04-15T02:45:56;6.13;;;2.40;;
6117;SDS011;3089;48.202;11.510;2023-04-15T02:48:24;6.77;;;2.50;;
6117;SDS011;3089;48.202;11.510;2023-04-15T02:50:52;4.40;;;2.30;;
6117;SDS011;3089;48.202;11.510;2023-04-15T02:53:21;5.57;;;2.67;;
6117;SDS011;3089;48.202;11.510;2023-04-15T02:55:49;5.70;;;2.63;;
6117;SDS011;3089;48.202;11.510;2023-04-15T02:58:17;4.43;;;2.20;;
6117;SDS011;3089;48.202;11.510;2023-04-15T03:00:45;9.07;;;3.70;;
6117;SDS011;3089;48.202;11.510;2023-04-15T03:03:13;6.80;;;2.57;;
6117;SDS011;3089;48.202;11.510;2023-04-15T03:05:42;4.93;;;2.33;;
6117;SDS011;3089;48.202;11.510;2023-04-15T03:08:10;4.57;;;2.50;;
6117;SDS011;3089;48.202;11.510;2023-04-15T03:10:41;8.67;;;3.40;;
6117;SDS011;3089;48.202;11.510;2023-04-15T03:13:09;5.90;;;2.73;;
6117;SDS011;3089;48.202;11.510;2023-04-15T03:15:37;4.73;;;2.43;;
6117;SDS011;3089;48.202;11.510;2023-04-15T03:18:04;9.00;;;2.90;;
6117;SDS011;3089;48.202;11.510;2023-04-15T03:20:32;7.03;;;2.73;;
6117;SDS011;3089;48.202;11.510;2023-04-15T03:23:01;8.60;;;3.13;;
6117;SDS011;3089;48.202;11.510;2023-04-15T03:25:29;4.57;;;2.40;;
6117;SDS011;3089;48.202;11.510;2023-04-15T03:27:58;5.33;;;2.27;;
6117;SDS011;3089;48.202;11.510;2023-04-15T03:30:26;6.70;;;3.10;;
6117;SDS011;3089;48.202;11.510;2023-04-15T03:32:54;5.47;;;2.20;;
6117;SDS011;3089;48.202;11.510;2023-04-15T03:35:22;6.60;;;2.83;;
6117;SDS011;3089;48.202;11.510;2023-04-15T03:37:49;7.63;;;3.30;;
6117;SDS011;3089;48.202;11.510;2023-04-15T03:40:17;4.20;;;2.20;;
6117;SDS011;3089;48.202;11.510;2023-04-15T03:42:45;4.63;;;2.30;;
6117;SDS011;3089;48.202;11.510;2023-04-15T03:45:14;6.20;;;2.53;;
6117;SDS011;3089;48.202;11.510;2023-04-15T03:47:42;5.23;;;2.47;;
6117;SDS011;3089;48.202;11.510;2023-04-15T03:50:11;8.43;;;2.57;;
6117;SDS011;3089;48.202;11.510;2023-04-15T03:52:38;7.50;;;2.70;;
6117;SDS011;3089;48.202;11.510;2023-04-15T03:55:06;7.90;;;2.37;;
6117;SDS011;3089;48.202;11.510;2023-04-15T03:57:35;5.70;;;2.67;;
6117;SDS011;3089;48.202;11.510;2023-04-15T04:00:04;5.10;;;2.50;;
6117;SDS011;3089;48.202;11.510;2023-04-15T04:02:34;6.87;;;2.43;;
6117;SDS011;3089;48.202;11.510;2023-04-15T04:05:02;8.40;;;2.90;;
6117;SDS011;3089;48.202;11.510;2023-04-15T04:07:31;4.30;;;2.40;;
6117;SDS011;3089;48.202;11.510;2023-04-15T04:09:59;5.90;;;2.07;;
6117;SDS011;3089;48.202;11.510;2023-04-15T04:12:26;8.73;;;2.50;;
6117;SDS011;3089;48.202;11.510;2023-04-15T04:14:54;5.30;;;2.40;;
6117;SDS011;3089;48.202;11.510;2023-04-15T04:17:22;5.73;;;2.70;;
6117;SDS011;3089;48.202;11.510;2023-04-15T04:19:51;5.70;;;2.30;;
6117;SDS011;3089;48.202;11.510;2023-04-15T04:22:21;4.50;;;2.30;;
6117;SDS011;3089;48.202;11.510;2023-04-15T04:24:49;6.20;;;2.37;;
6117;SDS011;3089;48.202;11.510;2023-04-15T04:27:17;5.40;;;2.23;;
6117;SDS011;3089;48.202;11.510;2023-04-15T04:29:45;4.00;;;1.60;;
6117;SDS011;3089;48.202;11.510;2023-04-15T04:32:15;6.67;;;2.77;;
6117;SDS011;3089;48.202;11.510;2023-04-15T04:34:43;7.37;;;2.37;;
6117;SDS011;3089;48.202;11.510;2023-04-15T04:37:12;6.43;;;2.33;;
6117;SDS011;3089;48.202;11.510;2023-04-15T04:39:40;10.83;;;2.00;;
6117;SDS011;3089;48.202;11.510;2023-04-15T04:42:07;11.37;;;2.93;;
6117;SDS011;3089;48.202;11.510;2023-04-15T04:44:35;6.30;;;2.27;;
6117;SDS011;3089;48.202;11.510;2023-04-15T04:47:03;8.10;;;2.03;;
6117;SDS011;3089;48.202;11.510;2023-04-15T04:49:32;6.37;;;2.20;;
6117;SDS011;3089;48.202;11.510;2023-04-15T04:52:00;5.63;;;2.10;;
6117;SDS011;3089;48.202;11.510;2023-04-15T04:54:30;6.40;;;2.50;;
6117;SDS011;3089;48.202;11.510;2023-04-15T04:56:57;7.90;;;2.30;;
6117;SDS011;3089;48.202;11.510;2023-04-15T04:59:25;11.43;;;2.93;;
6117;SDS011;3089;48.202;11.510;2023-04-15T05:01:53;6.37;;;2.30;;
6117;SDS011;3089;48.202;11.510;2023-04-15T05:04:21;9.17;;;2.47;;
6117;SDS011;3089;48.202;11.510;2023-04-15T05:06:49;4.70;;;2.07;;
6117;SDS011;3089;48.202;11.510;2023-04-15T05:09:17;5.20;;;1.73;;
6117;SDS011;3089;48.202;11.510;2023-04-15T05:11:46;5.83;;;2.50;;
6117;SDS011;3089;48.202;11.510;2023-04-15T05:14:14;4.50;;;1.80;;
6117;SDS011;3089;48.202;11.510;2023-04-15T05:16:42;5.97;;;2.17;;
6117;SDS011;3089;48.202;11.510;2023-04-15T05:19:10;4.47;;;1.70;;
6117;SDS011;3089;48.202;11.510;2023-04-15T05:21:37;10.30;;;2.50;;
6117;SDS011;3089;48.202;11.510;2023-04-15T05:24:05;3.20;;;1.53;;
6117;SDS011;3089;48.202;11.510;2023-04-15T05:26:33;4.80;;;1.87;;
6117;SDS011;3089;48.202;11.510;2023-04-15T05:29:03;4.83;;;1.50;;
6117;SDS011;3089;48.202;11.510;2023-04-15T05:31:31;5.67;;;1.90;;
6117;SDS011;3089;48.202;11.510;2023-04-15T05:33:59;8.97;;;2.00;;
6117;SDS011;3089;48.202;11.510;2023-04-15T05:36:27;5.87;;;1.97;;
6117;SDS011;3089;48.202;11.510;2023-04-15T05:38:56;5.70;;;2.10;;
6117;SDS011;3089;48.202;11.510;2023-04-15T05:41:24;7.00;;;2.07;;
6117;SDS011;3089;48.202;11.510;2023-04-15T05:43:52;9.80;;;2.10;;
6117;SDS011;3089;48.202;11.510;2023-04-15T05:46:21;6.47;;;1.73;;
6117;SDS011;3089;48.202;11.510;2023-04-15T05:48:49;4.33;;;1.63;;
6117;SDS011;3089;48.202;11.510;2023-04-15T05:51:19;7.10;;;1.93;;
6117;SDS011;3089;48.202;11.510;2023-04-15T05:53:47;4.67;;;1.70;;
6117;SDS011;3089;48.202;11.510;2023-04-15T05:56:15;7.13;;;1.73;;
6117;SDS011;3089;48.202;11.510;2023-04-15T05:58:43;7.57;;;1.57;;
6117;SDS011;3089;48.202;11.510;2023-04-15T06:01:11;4.67;;;1.67;;
6117;SDS011;3089;48.202;11.510;2023-04-15T06:03:40;7.57;;;1.77;;
6117;SDS011;3089;48.202;11.510;2023-04-15T06:06:09;4.40;;;1.20;;
6117;SDS011;3089;48.202;11.510;2023-04-15T06:08:37;4.90;;;1.87;;
6117;SDS011;3089;48.202;11.510;2023-04-15T06:11:04;4.20;;;1.27;;
6117;SDS011;3089;48.202;11.510;2023-04-15T06:13:32;4.77;;;1.50;;
6117;SDS011;3089;48.202;11.510;2023-04-15T06:16:01;13.83;;;1.70;;
6117;SDS011;3089;48.202;11.510;2023-04-15T06:18:29;6.60;;;1.57;;
6117;SDS011;3089;48.202;11.510;2023-04-15T06:20:58;4.10;;;1.40;;
6117;SDS011;3089;48.202;11.510;2023-04-15T06:23:26;5.77;;;1.43;;
6117;SDS011;3089;48.202;11.510;2023-04-15T06:25:53;4.97;;;1.80;;
6117;SDS011;3089;48.202;11.510;2023-04-15T06:28:21;4.97;;;1.60;;
6117;SDS011;3089;48.202;11.510;2023-04-15T06:30:49;3.90;;;1.20;;
6117;SDS011;3089;48.202;11.510;2023-04-15T06:33:17;4.33;;;1.40;;
6117;SDS011;3089;48.202;11.510;2023-04-15T06:35:45;5.60;;;1.20;;
6117;SDS011;3089;48.202;11.510;2023-04-15T06:38:16;4.57;;;1.33;;
6117;SDS011;3089;48.202;11.510;2023-04-15T06:40:43;3.53;;;1.30;;
6117;SDS011;3089;48.202;11.510;2023-04-15T06:43:12;3.33;;;1.40;;
6117;SDS011;3089;48.202;11.510;2023-04-15T06:45:40;3.40;;;1.30;;
6117;SDS011;3089;48.202;11.510;2023-04-15T06:48:08;4.00;;;1.40;;
6117;SDS011;3089;48.202;11.510;2023-04-15T06:50:36;4.00;;;1.40;;
6117;SDS011;3089;48.202;11.510;2023-04-15T06:53:03;5.60;;;1.53;;
6117;SDS011;3089;48.202;11.510;2023-04-15T06:55:33;6.20;;;1.40;;
6117;SDS011;3089;48.202;11.510;2023-04-15T06:58:01;3.47;;;1.23;;
6117;SDS011;3089;48.202;11.510;2023-04-15T07:00:28;3.33;;;1.20;;
6117;SDS011;3089;48.202;11.510;2023-04-15T07:02:58;5.40;;;1.43;;
6117;SDS011;3089;48.202;11.510;2023-04-15T07:05:28;4.40;;;1.10;;
6117;SDS011;3089;48.202;11.510;2023-04-15T07:07:57;10.10;;;1.60;;
6117;SDS011;3089;48.202;11.510;2023-04-15T07:10:25;3.83;;;1.37;;
6117;SDS011;3089;48.202;11.510;2023-04-15T07:12:54;3.20;;;1.37;;
6117;SDS011;3089;48.202;11.510;2023-04-15T07:15:23;3.10;;;1.10;;
6117;SDS011;3089;48.202;11.510;2023-04-15T07:17:50;3.67;;;1.30;;
6117;SDS011;3089;48.202;11.510;2023-04-15T07:20:18;5.70;;;1.53;;
6117;SDS011;3089;48.202;11.510;2023-04-15T07:22:46;3.23;;;1.20;;
6117;SDS011;3089;48.202;11.510;2023-04-15T07:25:14;4.00;;;1.70;;
6117;SDS011;3089;48.202;11.510;2023-04-15T07:27:42;3.97;;;1.50;;
6117;SDS011;3089;48.202;11.510;2023-04-15T07:30:12;3.07;;;1.00;;
6117;SDS011;3089;48.202;11.510;2023-04-15T07:32:40;4.23;;;1.17;;
6117;SDS011;3089;48.202;11.510;2023-04-15T07:35:08;3.60;;;1.20;;
6117;SDS011;3089;48.202;11.510;2023-04-15T07:37:36;4.80;;;1.47;;
6117;SDS011;3089;48.202;11.510;2023-04-15T07:40:05;15.00;;;2.10;;
6117;SDS011;3089;48.202;11.510;2023-04-15T07:42:34;4.57;;;1.33;;
6117;SDS011;3089;48.202;11.510;2023-04-15T07:45:06;4.37;;;2.00;;
6117;SDS011;3089;48.202;11.510;2023-04-15T07:47:36;5.63;;;1.53;;
6117;SDS011;3089;48.202;11.510;2023-04-15T07:50:04;5.93;;;1.23;;
6117;SDS011;3089;48.202;11.510;2023-04-15T07:52:32;5.47;;;1.10;;
6117;SDS011;3089;48.202;11.510;2023-04-15T07:55:04;4.20;;;1.00;;
6117;SDS011;3089;48.202;11.510;2023-04-15T07:57:33;2.83;;;1.10;;
6117;SDS011;3089;48.202;11.510;2023-04-15T08:00:02;3.97;;;1.50;;
6117;SDS011;3089;48.202;11.510;2023-04-15T08:02:32;4.50;;;1.63;;
6117;SDS011;3089;48.202;11.510;2023-04-15T08:05:06;2.93;;;1.30;;
6117;SDS011;3089;48.202;11.510;2023-04-15T08:07:35;3.60;;;1.40;;
6117;SDS011;3089;48.202;11.510;2023-04-15T08:10:04;5.17;;;1.10;;
6117;SDS011;3089;48.202;11.510;2023-04-15T08:12:35;3.27;;;1.47;;
6117;SDS011;3089;48.202;11.510;2023-04-15T08:15:03;3.33;;;1.40;;
6117;SDS011;3089;48.202;11.510;2023-04-15T08:17:33;4.27;;;1.17;;
6117;SDS011;3089;48.202;11.510;2023-04-15T08:20:01;6.07;;;1.60;;
6117;SDS011;3089;48.202;11.510;2023-04-15T08:22:32;14.80;;;1.60;;
6117;SDS011;3089;48.202;11.510;2023-04-15T08:25:00;6.30;;;1.50;;
6117;SDS011;3089;48.202;11.510;2023-04-15T08:27:28;7.23;;;1.70;;
6117;SDS011;3089;48.202;11.510;2023-04-15T08:29:56;5.60;;;1.37;;
6117;SDS011;3089;48.202;11.510;2023-04-15T08:32:24;5.93;;;1.37;;
6117;SDS011;3089;48.202;11.510;2023-04-15T08:34:52;4.20;;;1.40;;
6117;SDS011;3089;48.202;11.510;2023-04-15T08:37:20;6.03;;;1.43;;
6117;SDS011;3089;48.202;11.510;2023-04-15T08:39:49;8.77;;;1.77;;
6117;SDS011;3089;48.202;11.510;2023-04-15T08:42:18;7.23;;;2.00;;
6117;SDS011;3089;48.202;11.510;2023-04-15T08:44:53;3.13;;;1.23;;
6117;SDS011;3089;48.202;11.510;2023-04-15T08:47:21;5.53;;;1.60;;
6117;SDS011;3089;48.202;11.510;2023-04-15T08:49:55;6.47;;;1.70;;
6117;SDS011;3089;48.202;11.510;2023-04-15T08:52:24;3.57;;;1.50;;
6117;SDS011;3089;48.202;11.510;2023-04-15T08:54:55;4.00;;;1.60;;
6117;SDS011;3089;48.202;11.510;2023-04-15T08:57:25;7.63;;;2.30;;
6117;SDS011;3089;48.202;11.510;2023-04-15T08:59:54;3.70;;;1.40;;
6117;SDS011;3089;48.202;11.510;2023-04-15T09:02:22;4.23;;;1.40;;
6117;SDS011;3089;48.202;11.510;2023-04-15T09:04:51;7.50;;;1.70;;
6117;SDS011;3089;48.202;11.510;2023-04-15T09:07:19;4.50;;;1.90;;
6117;SDS011;3089;48.202;11.510;2023-04-15T09:09:47;6.43;;;2.23;;
6117;SDS011;3089;48.202;11.510;2023-04-15T09:12:16;8.50;;;1.77;;
6117;SDS011;3089;48.202;11.510;2023-04-15T09:14:44;4.17;;;1.63;;
6117;SDS011;3089;48.202;11.510;2023-04-15T09:17:13;7.50;;;1.90;;
6117;SDS011;3089;48.202;11.510;2023-04-15T09:19:46;6.90;;;1.50;;
6117;SDS011;3089;48.202;11.510;2023-04-15T09:22:14;7.03;;;2.13;;
6117;SDS011;3089;48.202;11.510;2023-04-15T09:24:41;6.77;;;2.20;;
6117;SDS011;3089;48.202;11.510;2023-04-15T09:27:09;3.37;;;1.50;;
6117;SDS011;3089;48.202;11.510;2023-04-15T09:29:39;5.70;;;2.27;;
6117;SDS011;3089;48.202;11.510;2023-04-15T09:32:08;17.00;;;1.77;;
6117;SDS011;3089;48.202;11.510;2023-04-15T09:34:37;12.27;;;1.47;;
6117;SDS011;3089;48.202;11.510;2023-04-15T09:37:05;5.27;;;2.27;;
6117;SDS011;3089;48.202;11.510;2023-04-15T09:39:47;4.60;;;1.50;;
6117;SDS011;3089;48.202;11.510;2023-04-15T09:42:16;4.40;;;1.73;;
6117;SDS011;3089;48.202;11.510;2023-04-15T09:44:50;5.30;;;2.00;;
6117;SDS011;3089;48.202;11.510;2023-04-15T09:47:28;5.20;;;2.10;;
6117;SDS011;3089;48.202;11.510;2023-04-15T09:49:56;6.17;;;2.10;;
6117;SDS011;3089;48.202;11.510;2023-04-15T09:52:25;3.83;;;1.80;;
6117;SDS011;3089;48.202;11.510;2023-04-15T09:54:57;5.07;;;2.00;;
6117;SDS011;3089;48.202;11.510;2023-04-15T09:57:33;9.10;;;2.17;;
6117;SDS011;3089;48.202;11.510;2023-04-15T10:00:04;6.77;;;2.20;;
6117;SDS011;3089;48.202;11.510;2023-04-15T10:02:33;11.23;;;2.40;;
6117;SDS011;3089;48.202;11.510;2023-04-15T10:05:02;5.27;;;2.20;;
6117;SDS011;3089;48.202;11.510;2023-04-15T10:07:30;3.60;;;1.83;;
6117;SDS011;3089;48.202;11.510;2023-04-15T10:09:58;6.73;;;2.57;;
6117;SDS011;3089;48.202;11.510;2023-04-15T10:12:27;9.63;;;2.27;;
6117;SDS011;3089;48.202;11.510;2023-04-15T10:14:56;3.73;;;1.50;;
6117;SDS011;3089;48.202;11.510;2023-04-15T10:17:27;4.60;;;2.40;;
6117;SDS011;3089;48.202;11.510;2023-04-15T10:19:58;4.67;;;2.20;;
6117;SDS011;3089;48.202;11.510;2023-04-15T10:22:27;5.40;;;2.30;;
6117;SDS011;3089;48.202;11.510;2023-04-15T10:24:56;6.13;;;2.70;;
6117;SDS011;3089;48.202;11.510;2023-04-15T10:27:26;6.60;;;2.33;;
6117;SDS011;3089;48.202;11.510;2023-04-15T10:29:54;7.57;;;2.50;;
6117;SDS011;3089;48.202;11.510;2023-04-15T10:32:23;11.23;;;2.90;;
6117;SDS011;3089;48.202;11.510;2023-04-15T10:34:52;12.23;;;2.80;;
6117;SDS011;3089;48.202;11.510;2023-04-15T10:37:24;6.43;;;2.33;;
6117;SDS011;3089;48.202;11.510;2023-04-15T10:40:00;4.33;;;1.97;;
6117;SDS011;3089;48.202;11.510;2023-04-15T10:42:49;12.80;;;3.30;;
6117;SDS011;3089;48.202;11.510;2023-04-15T10:45:17;5.87;;;2.50;;
6117;SDS011;3089;48.202;11.510;2023-04-15T10:47:45;6.30;;;2.70;;
6117;SDS011;3089;48.202;11.510;2023-04-15T10:50:19;5.63;;;2.60;;
6117;SDS011;3089;48.202;11.510;2023-04-15T10:52:49;5.73;;;2.77;;
6117;SDS011;3089;48.202;11.510;2023-04-15T10:55:18;4.70;;;2.60;;
6117;SDS011;3089;48.202;11.510;2023-04-15T10:57:50;6.90;;;3.23;;
6117;SDS011;3089;48.202;11.510;2023-04-15T11:00:20;5.97;;;2.37;;
6117;SDS011;3089;48.202;11.510;2023-04-15T11:02:51;5.30;;;2.97;;
6117;SDS011;3089;48.202;11.510;2023-04-15T11:05:23;11.37;;;3.30;;
6117;SDS011;3089;48.202;11.510;2023-04-15T11:08:17;11.20;;;3.57;;
6117;SDS011;3089;48.202;11.510;2023-04-15T11:10:49;7.87;;;3.37;;
6117;SDS011;3089;48.202;11.510;2023-04-15T11:13:25;8.00;;;3.40;;
6117;SDS011;3089;48.202;11.510;2023-04-15T11:15:55;7.90;;;3.63;;
6117;SDS011;3089;48.202;11.510;2023-04-15T11:18:25;6.87;;;2.83;;
6117;SDS011;3089;48.202;11.510;2023-04-15T11:21:00;6.07;;;3.40;;
6117;SDS011;3089;48.202;11.510;2023-04-15T11:23:30;7.90;;;3.50;;
6117;SDS011;3089;48.202;11.510;2023-04-15T11:26:00;11.23;;;3.00;;
6117;SDS011;3089;48.202;11.510;2023-04-15T11:28:31;7.47;;;3.60;;
6117;SDS011;3089;48.202;11.510;2023-04-15T11:31:04;7.07;;;2.87;;
6117;SDS011;3089;48.202;11.510;2023-04-15T11:33:33;7.10;;;3.43;;
6117;SDS011;3089;48.202;11.510;2023-04-15T11:36:03;8.83;;;3.90;;
6117;SDS011;3089;48.202;11.510;2023-04-15T11:38:31;7.27;;;3.40;;
6117;SDS011;3089;48.202;11.510;2023-04-15T11:41:00;9.77;;;3.70;;
6117;SDS011;3089;48.202;11.510;2023-04-15T11:43:30;5.33;;;2.87;;
6117;SDS011;3089;48.202;11.510;2023-04-15T11:46:01;8.20;;;2.73;;
6117;SDS011;3089;48.202;11.510;2023-04-15T11:48:29;8.17;;;3.43;;
6117;SDS011;3089;48.202;11.510;2023-04-15T11:50:59;8.57;;;3.00;;
6117;SDS011;3089;48.202;11.510;2023-04-15T11:53:39;9.40;;;3.20;;
6117;SDS011;3089;48.202;11.510;2023-04-15T11:56:09;5.53;;;2.50;;
6117;SDS011;3089;48.202;11.510;2023-04-15T11:58:42;5.87;;;2.97;;
6117;SDS011;3089;48.202;11.510;2023-04-15T12:01:11;5.17;;;2.00;;
6117;SDS011;3089;48.202;11.510;2023-04-15T12:03:40;5.97;;;2.93;;
6117;SDS011;3089;48.202;11.510;2023-04-15T12:06:13;10.00;;;2.80;;
6117;SDS011;3089;48.202;11.510;2023-04-15T12:08:58;4.70;;;2.40;;
6117;SDS011;3089;48.202;11.510;2023-04-15T12:11:33;6.60;;;2.60;;
6117;SDS011;3089;48.202;11.510;2023-04-15T12:14:04;7.30;;;2.10;;
6117;SDS011;3089;48.202;11.510;2023-04-15T12:16:34;4.63;;;1.90;;
6117;SDS011;3089;48.202;11.510;2023-04-15T12:19:15;5.30;;;2.37;;
6117;SDS011;3089;48.202;11.510;2023-04-15T12:21:45;5.53;;;2.80;;
6117;SDS011;3089;48.202;11.510;2023-04-15T12:24:18;4.60;;;2.20;;
6117;SDS011;3089;48.202;11.510;2023-04-15T12:26:49;6.30;;;2.30;;
6117;SDS011;3089;48.202;11.510;2023-04-15T12:29:18;3.10;;;1.20;;
6117;SDS011;3089;48.202;11.510;2023-04-15T12:31:48;6.17;;;1.70;;
6117;SDS011;3089;48.202;11.510;2023-04-15T12:34:17;3.57;;;1.50;;
6117;SDS011;3089;48.202;11.510;2023-04-15T12:36:53;6.57;;;1.80;;
6117;SDS011;3089;48.202;11.510;2023-04-15T12:39:23;4.63;;;1.73;;
6117;SDS011;3089;48.202;11.510;2023-04-15T12:41:53;3.90;;;2.27;;
6117;SDS011;3089;48.202;11.510;2023-04-15T12:44:21;5.73;;;2.20;;
6117;SDS011;3089;48.202;11.510;2023-04-15T12:46:50;6.90;;;2.57;;
6117;SDS011;3089;48.202;11.510;2023-04-15T12:49:19;5.40;;;1.90;;
6117;SDS011;3089;48.202;11.510;2023-04-15T12:51:47;3.60;;;1.87;;
6117;SDS011;3089;48.202;11.510;2023-04-15T12:54:16;13.43;;;2.00;;
6117;SDS011;3089;48.202;11.510;2023-04-15T12:56:45;7.90;;;2.30;;
6117;SDS011;3089;48.202;11.510;2023-04-15T12:59:15;6.20;;;1.80;;
6117;SDS011;3089;48.202;11.510;2023-04-15T13:01:44;7.83;;;1.90;;
6117;SDS011;3089;48.202;11.510;2023-04-15T13:04:13;5.40;;;2.10;;
6117;SDS011;3089;48.202;11.510;2023-04-15T13:06:41;5.30;;;2.03;;
6117;SDS011;3089;48.202;11.510;2023-04-15T13:09:10;5.50;;;2.30;;
6117;SDS011;3089;48.202;11.510;2023-04-15T13:11:38;5.83;;;2.60;;
6117;SDS011;3089;48.202;11.510;2023-04-15T13:14:07;8.07;;;2.90;;
6117;SDS011;3089;48.202;11.510;2023-04-15T13:16:36;7.40;;;2.40;;
6117;SDS011;3089;48.202;11.510;2023-04-15T13:19:05;6.63;;;2.03;;
6117;SDS011;3089;48.202;11.510;2023-04-15T13:21:32;5.00;;;2.30;;
6117;SDS011;3089;48.202;11.510;2023-04-15T13:24:01;9.50;;;2.70;;
6117;SDS011;3089;48.202;11.510;2023-04-15T13:26:32;7.63;;;2.50;;
6117;SDS011;3089;48.202;11.510;2023-04-15T13:29:00;8.10;;;2.27;;
6117;SDS011;3089;48.202;11.510;2023-04-15T13:31:29;7.77;;;2.60;;
6117;SDS011;3089;48.202;11.510;2023-04-15T13:33:57;5.10;;;2.30;;
6117;SDS011;3089;48.202;11.510;2023-04-15T13:36:25;6.63;;;2.57;;
6117;SDS011;3089;48.202;11.510;2023-04-15T13:38:53;6.33;;;2.70;;
6117;SDS011;3089;48.202;11.510;2023-04-15T13:41:22;5.97;;;2.40;;
6117;SDS011;3089;48.202;11.510;2023-04-15T13:43:49;9.43;;;2.90;;
6117;SDS011;3089;48.202;11.510;2023-04-15T13:46:17;6.13;;;2.50;;
6117;SDS011;3089;48.202;11.510;2023-04-15T13:48:47;5.80;;;2.70;;
6117;SDS011;3089;48.202;11.510;2023-04-15T13:51:14;5.03;;;2.40;;
6117;SDS011;3089;48.202;11.510;2023-04-15T13:53:42;4.67;;;2.27;;
6117;SDS011;3089;48.202;11.510;2023-04-15T13:56:10;5.43;;;2.17;;
6117;SDS011;3089;48.202;11.510;2023-04-15T13:58:39;3.90;;;1.83;;
6117;SDS011;3089;48.202;11.510;2023-04-15T14:01:07;5.77;;;2.10;;
6117;SDS011;3089;48.202;11.510;2023-04-15T14:03:35;6.80;;;2.43;;
6117;SDS011;3089;48.202;11.510;2023-04-15T14:06:05;5.17;;;2.27;;
6117;SDS011;3089;48.202;11.510;2023-04-15T14:08:33;4.60;;;2.70;;
6117;SDS011;3089;48.202;11.510;2023-04-15T14:11:01;3.87;;;1.80;;
6117;SDS011;3089;48.202;11.510;2023-04-15T14:13:28;3.70;;;1.80;;
6117;SDS011;3089;48.202;11.510;2023-04-15T14:15:56;3.60;;;1.63;;
6117;SDS011;3089;48.202;11.510;2023-04-15T14:18:24;4.47;;;1.87;;
6117;SDS011;3089;48.202;11.510;2023-04-15T14:20:52;7.57;;;2.10;;
6117;SDS011;3089;48.202;11.510;2023-04-15T14:23:21;6.10;;;2.40;;
6117;SDS011;3089;48.202;11.510;2023-04-15T14:25:49;4.97;;;1.90;;
6117;SDS011;3089;48.202;11.510;2023-04-15T14:28:18;4.97;;;1.80;;
6117;SDS011;3089;48.202;11.510;2023-04-15T14:30:45;5.30;;;2.07;;
6117;SDS011;3089;48.202;11.510;2023-04-15T14:33:14;4.07;;;1.87;;
6117;SDS011;3089;48.202;11.510;2023-04-15T14:35:42;3.97;;;1.70;;
6117;SDS011;3089;48.202;11.510;2023-04-15T14:38:10;6.20;;;2.03;;
6117;SDS011;3089;48.202;11.510;2023-04-15T14:40:39;6.80;;;2.33;;
6117;SDS011;3089;48.202;11.510;2023-04-15T14:43:07;6.60;;;2.70;;
6117;SDS011;3089;48.202;11.510;2023-04-15T14:45:36;5.13;;;2.27;;
6117;SDS011;3089;48.202;11.510;2023-04-15T14:48:08;6.90;;;2.50;;
6117;SDS011;3089;48.202;11.510;2023-04-15T14:50:37;6.00;;;2.93;;
6117;SDS011;3089;48.202;11.510;2023-04-15T14:53:06;4.90;;;2.20;;
6117;SDS011;3089;48.202;11.510;2023-04-15T14:55:33;6.83;;;2.93;;
6117;SDS011;3089;48.202;11.510;2023-04-15T14:58:03;4.13;;;2.03;;
6117;SDS011;3089;48.202;11.510;2023-04-15T15:00:31;6.83;;;3.00;;
6117;SDS011;3089;48.202;11.510;2023-04-15T15:02:59;4.90;;;2.30;;
6117;SDS011;3089;48.202;11.510;2023-04-15T15:05:27;4.70;;;2.30;;
6117;SDS011;3089;48.202;11.510;2023-04-15T15:07:55;6.37;;;3.00;;
6117;SDS011;3089;48.202;11.510;2023-04-15T15:10:23;2.53;;;1.17;;